createdAt,value
2022-09-11T00:01:23.783Z,14.68
2022-09-11T00:03:56.384Z,14.70
2022-09-11T00:06:30.620Z,14.71
2022-09-11T00:09:01.047Z,14.65
2022-09-11T00:11:33.383Z,14.74
2022-09-11T00:14:02.247Z,14.73
2022-09-11T00:16:34.004Z,14.74
2022-09-11T00:19:04.005Z,14.71
2022-09-11T00:21:32.002Z,14.69
2022-09-11T00:24:00.336Z,14.69
2022-09-11T00:26:29.938Z,14.66
2022-09-11T00:28:58.217Z,14.67
2022-09-11T00:31:32.471Z,14.67
2022-09-11T00:34:06.835Z,14.68
2022-09-11T00:36:37.609Z,14.69
2022-09-11T00:39:06.022Z,14.72
2022-09-11T00:41:37.336Z,14.72
2022-09-11T00:44:08.293Z,14.70
2022-09-11T00:46:40.592Z,14.75
2022-09-11T00:49:24.737Z,14.74
2022-09-11T00:51:57.364Z,14.74
2022-09-11T00:54:29.599Z,14.75
2022-09-11T00:57:01.419Z,14.75
2022-09-11T00:59:32.419Z,14.80
2022-09-11T01:02:03.578Z,14.82
2022-09-11T01:04:32.467Z,14.86
2022-09-11T01:07:01.943Z,14.92
2022-09-11T01:09:34.837Z,15.00
2022-09-11T01:12:11.026Z,15.05
2022-09-11T01:14:45.219Z,15.06
2022-09-11T01:17:27.722Z,15.07
2022-09-11T01:20:23.601Z,15.04
2022-09-11T01:23:16.889Z,15.04
2022-09-11T01:26:02.126Z,15.06
2022-09-11T01:28:37.702Z,15.07
2022-09-11T01:31:11.643Z,15.12
2022-09-11T01:33:46.320Z,15.08
2022-09-11T01:36:21.071Z,15.12
2022-09-11T01:38:54.091Z,15.14
2022-09-11T01:41:28.464Z,15.13
2022-09-11T01:44:03.919Z,15.09
2022-09-11T01:46:40.690Z,15.08
2022-09-11T01:49:16.082Z,15.08
2022-09-11T01:51:44.442Z,15.07
2022-09-11T01:54:20.584Z,15.06
2022-09-11T01:56:53.350Z,15.06
2022-09-11T01:59:28.086Z,15.12
2022-09-11T02:02:02.942Z,15.04
2022-09-11T02:04:35.989Z,15.00
2022-09-11T02:07:11.412Z,14.96
2022-09-11T02:09:46.142Z,14.93
2022-09-11T02:12:20.312Z,14.91
2022-09-11T02:14:53.408Z,14.85
2022-09-11T02:17:28.023Z,14.73
2022-09-11T02:21:57.238Z,14.58
2022-09-11T02:24:30.787Z,14.54
2022-09-11T02:27:03.831Z,14.47
2022-09-11T02:29:35.839Z,14.38
2022-09-11T02:32:10.799Z,14.42
2022-09-11T02:34:41.862Z,14.40
2022-09-11T02:37:23.030Z,14.43
2022-09-11T02:40:09.286Z,14.42
2022-09-11T02:42:54.186Z,14.43
2022-09-11T02:45:35.943Z,14.48
2022-09-11T02:48:20.502Z,14.52
2022-09-11T02:50:57.105Z,14.57
2022-09-11T02:53:34.857Z,14.62
2022-09-11T02:56:08.980Z,14.67
2022-09-11T02:58:45.465Z,14.73
2022-09-11T03:01:16.245Z,14.75
2022-09-11T03:03:46.569Z,14.76
2022-09-11T03:06:20.535Z,14.84
2022-09-11T03:08:50.299Z,14.85
2022-09-11T03:11:20.206Z,14.78
2022-09-11T03:13:52.970Z,14.76
2022-09-11T03:16:23.595Z,14.71
2022-09-11T03:18:52.261Z,14.70
2022-09-11T03:21:20.451Z,14.64
2022-09-11T03:23:50.175Z,14.57
2022-09-11T03:26:18.402Z,14.55
2022-09-11T03:28:49.573Z,14.51
2022-09-11T03:31:18.353Z,14.47
2022-09-11T03:33:48.916Z,14.42
2022-09-11T03:36:17.017Z,14.40
2022-09-11T03:38:46.149Z,14.38
2022-09-11T03:41:18.443Z,14.36
2022-09-11T03:43:46.929Z,14.34
2022-09-11T03:46:15.205Z,14.35
2022-09-11T03:48:43.843Z,14.31
2022-09-11T03:51:11.771Z,14.27
2022-09-11T03:53:40.663Z,14.25
2022-09-11T03:56:09.302Z,14.24
2022-09-11T03:58:44.995Z,14.25
2022-09-11T04:01:19.049Z,14.30
2022-09-11T04:03:48.731Z,14.31
2022-09-11T04:06:23.972Z,14.38
2022-09-11T04:08:52.093Z,14.39
2022-09-11T04:11:22.601Z,14.43
2022-09-11T04:13:53.221Z,14.44
2022-09-11T04:16:21.756Z,14.44
2022-09-11T04:18:54.398Z,14.45
2022-09-11T04:21:22.542Z,14.43
2022-09-11T04:23:54.389Z,14.44
2022-09-11T04:26:25.239Z,14.43
2022-09-11T04:29:01.296Z,14.41
2022-09-11T04:31:30.126Z,14.39
2022-09-11T04:34:00.552Z,14.38
2022-09-11T04:36:32.874Z,14.37
2022-09-11T04:39:01.192Z,14.32
2022-09-11T04:41:30.776Z,14.29
2022-09-11T04:44:05.413Z,14.24
2022-09-11T04:46:41.019Z,14.21
2022-09-11T04:49:10.878Z,14.18
2022-09-11T04:51:40.743Z,14.16
2022-09-11T04:54:14.906Z,14.13
2022-09-11T04:56:46.435Z,14.11
2022-09-11T04:59:19.479Z,14.06
2022-09-11T05:02:08.206Z,14.02
2022-09-11T05:04:43.461Z,14.02
2022-09-11T05:07:14.398Z,13.98
2022-09-11T05:09:45.560Z,13.95
2022-09-11T05:12:13.966Z,13.92
2022-09-11T05:14:43.227Z,13.90
2022-09-11T05:17:13.611Z,13.83
2022-09-11T05:19:43.677Z,13.80
2022-09-11T05:22:11.879Z,13.78
2022-09-11T05:24:45.114Z,13.78
2022-09-11T05:27:14.224Z,13.82
2022-09-11T05:29:46.509Z,13.86
2022-09-11T05:32:16.161Z,13.86
2022-09-11T05:34:46.989Z,13.90
2022-09-11T05:37:17.686Z,13.96
2022-09-11T05:39:47.111Z,14.01
2022-09-11T05:42:22.174Z,14.13
2022-09-11T05:44:57.033Z,14.21
2022-09-11T05:47:27.733Z,14.31
2022-09-11T05:49:57.775Z,14.40
2022-09-11T05:52:30.466Z,14.53
2022-09-11T05:54:58.504Z,14.66
2022-09-11T05:57:27.225Z,14.81
2022-09-11T05:59:57.641Z,14.91
2022-09-11T06:02:28.005Z,15.12
2022-09-11T06:04:57.030Z,15.30
2022-09-11T06:07:26.876Z,15.54
2022-09-11T06:10:02.328Z,15.81
2022-09-11T06:12:32.712Z,16.08
2022-09-11T06:15:02.160Z,16.37
2022-09-11T06:17:33.565Z,16.77
2022-09-11T06:20:04.611Z,17.00
2022-09-11T06:22:33.701Z,17.26
2022-09-11T06:25:01.677Z,17.60
2022-09-11T06:27:30.664Z,17.86
2022-09-11T06:29:59.164Z,17.91
2022-09-11T06:32:28.511Z,18.17
2022-09-11T06:35:00.340Z,18.22
2022-09-11T06:37:28.322Z,18.82
2022-09-11T06:39:56.934Z,19.11
2022-09-11T06:42:28.171Z,19.60
2022-09-11T06:44:59.697Z,20.10
2022-09-11T06:47:31.481Z,20.55
2022-09-11T06:50:02.030Z,20.95
2022-09-11T06:52:38.661Z,21.03
2022-09-11T06:55:16.185Z,22.00
2022-09-11T06:57:52.382Z,22.79
2022-09-11T07:00:28.161Z,23.03
2022-09-11T07:02:58.294Z,23.40
2022-09-11T07:05:29.468Z,23.43
2022-09-11T07:08:01.805Z,22.82
2022-09-11T07:10:34.400Z,23.90
2022-09-11T07:13:05.621Z,24.00
2022-09-11T07:15:33.876Z,24.06
2022-09-11T07:18:05.421Z,23.67
2022-09-11T07:22:55.268Z,24.53
2022-09-11T07:25:23.362Z,24.65
2022-09-11T07:27:52.254Z,24.65
2022-09-11T07:30:21.850Z,24.38
2022-09-11T07:32:54.233Z,24.83
2022-09-11T07:35:24.924Z,25.41
2022-09-11T07:37:56.373Z,24.97
2022-09-11T07:40:27.915Z,25.63
2022-09-11T07:42:59.471Z,26.50
2022-09-11T07:45:29.135Z,25.57
2022-09-11T07:48:02.232Z,24.30
2022-09-11T07:50:31.900Z,24.10
2022-09-11T07:53:06.502Z,23.88
2022-09-11T07:55:35.609Z,23.18
2022-09-11T07:58:04.727Z,23.23
2022-09-11T08:00:39.450Z,23.01
2022-09-11T08:03:17.315Z,22.77
2022-09-11T08:05:46.021Z,22.69
2022-09-11T08:08:18.185Z,22.78
2022-09-11T08:10:46.296Z,22.34
2022-09-11T08:13:14.282Z,21.83
2022-09-11T08:15:47.962Z,22.27
2022-09-11T08:18:16.639Z,22.51
2022-09-11T08:20:44.849Z,23.07
2022-09-11T08:23:14.891Z,24.74
2022-09-11T08:25:45.217Z,24.79
2022-09-11T08:28:15.687Z,26.93
2022-09-11T08:30:44.358Z,26.93
2022-09-11T08:33:13.558Z,27.04
2022-09-11T08:35:42.632Z,26.48
2022-09-11T08:38:10.929Z,24.82
2022-09-11T08:40:40.005Z,24.04
2022-09-11T08:43:22.772Z,22.81
2022-09-11T08:45:59.175Z,22.17
2022-09-11T08:48:33.917Z,22.33
2022-09-11T08:51:02.409Z,23.52
2022-09-11T08:53:33.688Z,22.23
2022-09-11T08:56:10.024Z,22.47
2022-09-11T08:58:47.099Z,24.00
2022-09-11T09:01:27.859Z,23.77
2022-09-11T09:04:15.432Z,23.58
2022-09-11T09:06:59.044Z,23.40
2022-09-11T09:09:40.313Z,22.78
2022-09-11T09:12:16.163Z,23.30
2022-09-11T09:15:29.351Z,24.08
2022-09-11T09:18:02.251Z,24.96
2022-09-11T09:20:35.082Z,25.90
2022-09-11T09:23:07.850Z,27.89
2022-09-11T09:25:41.203Z,27.91
2022-09-11T09:28:19.390Z,26.73
2022-09-11T09:30:53.030Z,25.69
2022-09-11T09:33:31.799Z,24.41
2022-09-11T09:36:14.175Z,24.60
2022-09-11T09:38:42.966Z,24.13
2022-09-11T09:41:54.144Z,24.05
2022-09-11T09:44:39.092Z,24.17
2022-09-11T09:47:13.077Z,24.13
2022-09-11T09:49:42.019Z,24.15
2022-09-11T09:52:18.130Z,24.31
2022-09-11T09:54:55.200Z,23.94
2022-09-11T09:57:27.325Z,23.50
2022-09-11T10:00:02.379Z,22.84
2022-09-11T10:02:49.249Z,22.29
2022-09-11T10:05:21.183Z,21.74
2022-09-11T10:07:51.781Z,21.41
2022-09-11T10:10:25.014Z,23.25
2022-09-11T10:13:17.543Z,25.25
2022-09-11T10:15:49.125Z,27.05
2022-09-11T10:18:42.669Z,28.38
2022-09-11T10:21:26.067Z,28.20
2022-09-11T10:24:01.219Z,28.74
2022-09-11T10:26:35.824Z,27.24
2022-09-11T10:29:10.031Z,28.47
2022-09-11T10:31:42.140Z,29.72
2022-09-11T10:34:20.296Z,29.54
2022-09-11T10:36:54.868Z,27.94
2022-09-11T10:39:25.874Z,26.99
2022-09-11T10:41:59.274Z,25.62
2022-09-11T10:44:29.393Z,25.29
2022-09-11T10:47:06.326Z,26.16
2022-09-11T10:49:38.245Z,26.88
2022-09-11T10:52:19.798Z,28.90
2022-09-11T10:55:04.813Z,29.99
2022-09-11T10:57:39.874Z,30.31
2022-09-11T11:00:17.198Z,30.63
2022-09-11T11:02:46.759Z,30.76
2022-09-11T11:05:24.573Z,31.40
2022-09-11T11:08:06.019Z,32.03
2022-09-11T11:10:51.103Z,31.37
2022-09-11T11:13:38.980Z,29.89
2022-09-11T11:16:17.072Z,29.67
2022-09-11T11:19:06.757Z,31.26
2022-09-11T11:21:49.218Z,31.69
2022-09-11T11:24:33.216Z,31.64
2022-09-11T11:27:24.104Z,32.23
2022-09-11T11:30:08.602Z,32.02
2022-09-11T11:33:17.364Z,32.08
2022-09-11T11:35:58.245Z,31.51
2022-09-11T11:38:39.569Z,29.33
2022-09-11T11:41:13.417Z,27.68
2022-09-11T11:43:44.551Z,26.50
2022-09-11T11:46:19.367Z,26.27
2022-09-11T11:48:54.574Z,25.78
2022-09-11T11:51:27.209Z,25.53
2022-09-11T11:54:02.818Z,25.63
2022-09-11T11:56:38.998Z,26.63
2022-09-11T11:59:16.511Z,27.50
2022-09-11T12:01:50.128Z,28.65
2022-09-11T12:04:32.176Z,29.10
2022-09-11T12:07:00.939Z,29.66
2022-09-11T12:09:33.735Z,31.03
2022-09-11T12:12:07.934Z,30.65
2022-09-11T12:14:35.924Z,30.01
2022-09-11T12:17:19.870Z,28.20
2022-09-11T12:24:25.707Z,26.43
2022-09-11T12:27:44.292Z,26.84
2022-09-11T12:30:22.191Z,25.93
2022-09-11T12:32:51.300Z,25.68
2022-09-11T12:35:24.462Z,25.92
2022-09-11T12:37:58.694Z,26.09
2022-09-11T12:40:37.610Z,26.15
2022-09-11T12:43:26.386Z,25.94
2022-09-11T12:45:54.750Z,26.06
2022-09-11T12:48:38.860Z,25.69
2022-09-11T12:51:21.614Z,24.74
2022-09-11T12:53:53.521Z,24.13
2022-09-11T12:56:26.151Z,23.76
2022-09-11T12:59:00.752Z,23.62
2022-09-11T13:01:31.859Z,23.28
2022-09-11T13:04:04.625Z,23.29
2022-09-11T13:06:43.807Z,23.23
2022-09-11T13:09:21.031Z,23.36
2022-09-11T13:11:52.352Z,23.42
2022-09-11T13:14:47.765Z,23.28
2022-09-11T13:17:25.777Z,23.22
2022-09-11T13:19:58.235Z,23.24
2022-09-11T13:22:31.023Z,23.32
2022-09-11T13:25:13.547Z,23.32
2022-09-11T13:27:46.556Z,23.46
2022-09-11T13:30:15.696Z,23.82
2022-09-11T13:32:45.168Z,23.93
2022-09-11T13:35:16.383Z,24.01
2022-09-11T13:37:48.754Z,23.84
2022-09-11T13:40:22.463Z,23.90
2022-09-11T13:42:54.351Z,23.70
2022-09-11T13:45:24.974Z,23.53
2022-09-11T13:47:55.401Z,23.82
2022-09-11T13:50:24.580Z,23.77
2022-09-11T13:52:54.344Z,23.81
2022-09-11T13:55:26.939Z,23.65
2022-09-11T13:57:58.583Z,23.63
2022-09-11T14:00:42.795Z,23.58
2022-09-11T14:03:22.983Z,23.39
2022-09-11T14:05:54.896Z,23.55
2022-09-11T14:08:28.854Z,23.30
2022-09-11T14:10:59.274Z,23.12
2022-09-11T14:13:34.131Z,22.92
2022-09-11T14:16:07.664Z,22.72
2022-09-11T14:18:43.576Z,22.64
2022-09-11T14:21:15.678Z,22.47
2022-09-11T14:23:48.140Z,22.32
2022-09-11T14:26:17.963Z,22.36
2022-09-11T14:29:06.860Z,22.47
2022-09-11T14:31:38.379Z,22.71
2022-09-11T14:34:15.480Z,22.82
2022-09-11T14:36:46.502Z,22.97
2022-09-11T14:39:25.313Z,22.79
2022-09-11T14:41:55.653Z,22.57
2022-09-11T14:44:28.879Z,22.76
2022-09-11T14:46:57.672Z,22.89
2022-09-11T14:49:25.684Z,22.79
2022-09-11T14:52:00.177Z,22.77
2022-09-11T14:54:31.086Z,22.73
2022-09-11T14:57:00.026Z,22.98
2022-09-11T14:59:31.429Z,23.01
2022-09-11T15:02:02.024Z,22.92
2022-09-11T15:04:32.375Z,22.35
2022-09-11T15:07:00.891Z,22.37
2022-09-11T15:09:31.279Z,22.07
2022-09-11T15:11:59.414Z,21.99
2022-09-11T15:14:55.111Z,21.96
2022-09-11T15:17:25.012Z,21.74
2022-09-11T15:19:53.705Z,21.58
2022-09-11T15:22:24.387Z,21.49
2022-09-11T15:24:56.509Z,21.39
2022-09-11T15:27:26.117Z,21.20
2022-09-11T15:29:57.709Z,21.04
2022-09-11T15:32:26.218Z,20.96
2022-09-11T15:34:56.649Z,20.85
2022-09-11T15:37:25.451Z,20.82
2022-09-11T15:39:54.313Z,20.72
2022-09-11T15:42:22.485Z,20.66
2022-09-11T15:44:51.403Z,20.62
2022-09-11T15:47:20.665Z,20.59
2022-09-11T15:49:48.998Z,20.53
2022-09-11T15:52:20.091Z,20.46
2022-09-11T15:54:48.976Z,20.41
2022-09-11T15:57:16.996Z,20.41
2022-09-11T15:59:45.257Z,20.44
2022-09-11T16:02:13.598Z,20.52
2022-09-11T16:04:43.011Z,20.59
2022-09-11T16:07:11.386Z,20.62
2022-09-11T16:09:39.676Z,20.56
2022-09-11T16:12:08.120Z,20.54
2022-09-11T16:14:38.547Z,20.45
2022-09-11T16:17:11.507Z,20.40
2022-09-11T16:19:39.732Z,20.40
2022-09-11T16:22:09.067Z,20.39
2022-09-11T16:24:40.072Z,20.47
2022-09-11T16:27:10.207Z,20.55
2022-09-11T16:32:29.616Z,20.53
2022-09-11T16:34:59.939Z,20.46
2022-09-11T16:37:34.026Z,20.44
2022-09-11T16:40:04.266Z,20.44
2022-09-11T16:42:33.264Z,20.42
2022-09-11T16:45:01.336Z,20.37
2022-09-11T16:47:30.390Z,20.29
2022-09-11T16:50:07.400Z,20.27
2022-09-11T16:52:38.508Z,20.29
2022-09-11T16:55:10.412Z,20.21
2022-09-11T16:57:40.977Z,20.17
2022-09-11T17:00:11.335Z,20.10
2022-09-11T17:02:41.721Z,20.04
2022-09-11T17:05:12.734Z,20.03
2022-09-11T17:07:41.998Z,20.00
2022-09-11T17:10:12.299Z,19.89
2022-09-11T17:12:40.939Z,19.80
2022-09-11T17:15:11.771Z,19.72
2022-09-11T17:17:41.387Z,19.75
2022-09-11T17:20:11.657Z,19.67
2022-09-11T17:24:55.859Z,19.49
2022-09-11T17:27:23.966Z,19.33
2022-09-11T17:29:51.804Z,19.22
2022-09-11T17:32:29.314Z,19.18
2022-09-11T17:35:02.120Z,19.06
2022-09-11T17:37:32.920Z,18.90
2022-09-11T17:40:02.491Z,18.72
2022-09-11T17:42:32.427Z,18.58
2022-09-11T17:45:01.881Z,18.43
2022-09-11T17:47:34.766Z,18.35
2022-09-11T17:50:05.503Z,18.23
2022-09-11T17:52:36.997Z,18.09
2022-09-11T17:55:09.193Z,18.03
2022-09-11T17:57:38.091Z,17.92
2022-09-11T18:00:09.780Z,17.79
2022-09-11T18:02:41.023Z,17.70
2022-09-11T18:05:09.244Z,17.60
2022-09-11T18:07:37.418Z,17.50
2022-09-11T18:10:08.312Z,17.42
2022-09-11T18:12:36.448Z,17.33
2022-09-11T18:15:05.267Z,17.32
2022-09-11T18:17:36.341Z,17.30
2022-09-11T18:20:04.853Z,17.27
2022-09-11T18:22:39.744Z,17.21
2022-09-11T18:25:10.325Z,17.14
2022-09-11T18:27:40.263Z,17.06
2022-09-11T18:30:09.921Z,17.11
2022-09-11T18:32:39.853Z,17.01
2022-09-11T18:35:09.487Z,16.95
2022-09-11T18:37:37.427Z,16.88
2022-09-11T18:40:09.877Z,16.79
2022-09-11T18:42:40.875Z,16.68
2022-09-11T18:45:10.651Z,16.65
2022-09-11T18:47:40.888Z,16.65
2022-09-11T18:50:10.219Z,16.67
2022-09-11T18:52:38.353Z,16.60
2022-09-11T18:55:07.185Z,16.55
2022-09-11T18:57:41.151Z,16.34
2022-09-11T19:00:14.211Z,16.55
2022-09-11T19:02:42.308Z,16.41
2022-09-11T19:05:11.153Z,16.32
2022-09-11T19:07:39.361Z,16.22
2022-09-11T19:10:08.453Z,16.10
2022-09-11T19:12:37.873Z,16.07
2022-09-11T19:15:09.900Z,16.05
2022-09-11T19:17:40.775Z,15.98
2022-09-11T19:20:12.723Z,15.91
2022-09-11T19:22:44.246Z,15.85
2022-09-11T19:25:12.472Z,15.77
2022-09-11T19:27:42.079Z,15.74
2022-09-11T19:30:13.789Z,15.69
2022-09-11T19:32:41.715Z,15.65
2022-09-11T19:35:09.985Z,15.58
2022-09-11T19:37:38.339Z,15.52
2022-09-11T19:40:08.001Z,15.48
2022-09-11T19:42:38.282Z,15.42
2022-09-11T19:45:09.396Z,15.34
2022-09-11T19:47:37.333Z,15.33
2022-09-11T19:50:06.318Z,15.36
2022-09-11T19:52:36.611Z,15.38
2022-09-11T19:55:04.967Z,15.38
2022-09-11T19:57:33.030Z,15.37
2022-09-11T20:00:01.027Z,15.33
2022-09-11T20:02:30.905Z,15.29
2022-09-11T20:05:00.372Z,15.25
2022-09-11T20:07:33.513Z,15.17
2022-09-11T20:10:02.010Z,15.22
2022-09-11T20:12:36.983Z,15.38
2022-09-11T20:15:05.061Z,15.31
2022-09-11T20:17:34.911Z,15.21
2022-09-11T20:20:03.305Z,15.10
2022-09-11T20:22:31.548Z,14.99
2022-09-11T20:25:00.529Z,14.74
2022-09-11T20:27:28.938Z,14.87
2022-09-11T20:29:57.467Z,14.79
2022-09-11T20:32:28.208Z,14.80
2022-09-11T20:34:57.556Z,14.92
2022-09-11T20:37:25.961Z,15.05
2022-09-11T20:39:53.882Z,14.99
2022-09-11T20:42:22.209Z,14.97
2022-09-11T20:44:50.293Z,14.92
2022-09-11T20:47:18.410Z,14.85
2022-09-11T20:49:49.465Z,14.78
2022-09-11T20:52:19.595Z,14.69
2022-09-11T20:54:48.605Z,14.63
2022-09-11T20:57:18.650Z,14.55
2022-09-11T20:59:50.039Z,14.50
2022-09-11T21:02:19.047Z,14.49
2022-09-11T21:04:48.868Z,14.53
2022-09-11T21:07:20.966Z,14.48
2022-09-11T21:09:49.080Z,14.42
2022-09-11T21:12:17.302Z,14.42
2022-09-11T21:14:45.738Z,14.36
2022-09-11T21:17:13.994Z,14.34
2022-09-11T21:19:43.270Z,14.33
2022-09-11T21:22:14.426Z,14.30
2022-09-11T21:24:44.480Z,14.21
2022-09-11T21:27:12.756Z,14.26
2022-09-11T21:29:40.744Z,14.33
2022-09-11T21:32:08.975Z,14.29
2022-09-11T21:34:37.044Z,14.20
2022-09-11T21:37:05.440Z,14.11
2022-09-11T21:39:33.706Z,14.07
2022-09-11T21:42:03.571Z,14.00
2022-09-11T21:44:31.607Z,13.93
2022-09-11T21:47:00.278Z,13.91
2022-09-11T21:49:30.525Z,13.85
2022-09-11T21:51:58.788Z,13.79
2022-09-11T21:54:31.239Z,13.73
2022-09-11T21:57:00.354Z,13.69
2022-09-11T21:59:31.366Z,13.64
2022-09-11T22:01:59.759Z,13.62
2022-09-11T22:04:28.037Z,13.63
2022-09-11T22:06:56.078Z,13.65
2022-09-11T22:09:27.040Z,13.68
2022-09-11T22:11:59.279Z,13.68
2022-09-11T22:14:29.829Z,13.66
2022-09-11T22:16:58.006Z,13.64
2022-09-11T22:19:26.472Z,13.63
2022-09-11T22:21:54.809Z,13.63
2022-09-11T22:26:01.472Z,13.48
2022-09-11T22:28:29.868Z,13.46
2022-09-11T22:30:58.471Z,13.44
2022-09-11T22:33:26.510Z,13.45
2022-09-11T22:35:54.579Z,13.45
2022-09-11T22:38:22.533Z,13.36
2022-09-11T22:40:54.614Z,13.28
2022-09-11T22:43:24.097Z,13.21
2022-09-11T22:45:54.741Z,13.11
2022-09-11T22:48:24.925Z,13.09
2022-09-11T22:50:57.450Z,13.10
2022-09-11T22:53:25.818Z,13.07
2022-09-11T22:55:55.188Z,13.23
2022-09-11T22:58:24.845Z,13.17
2022-09-11T23:00:56.066Z,13.20
2022-09-11T23:03:24.600Z,13.22
2022-09-11T23:06:13.913Z,13.23
2022-09-11T23:08:42.113Z,13.20
2022-09-11T23:11:15.125Z,13.06
2022-09-11T23:13:45.224Z,13.01
2022-09-11T23:16:15.400Z,13.07
2022-09-11T23:18:44.799Z,13.01
2022-09-11T23:21:13.543Z,12.93
2022-09-11T23:23:42.933Z,12.89
2022-09-11T23:26:13.200Z,12.85
2022-09-11T23:28:41.963Z,12.80
2022-09-11T23:31:17.207Z,12.77
2022-09-11T23:33:53.615Z,12.66
2022-09-11T23:36:22.806Z,12.75
2022-09-11T23:38:51.619Z,12.72
2022-09-11T23:41:20.048Z,12.75
2022-09-11T23:43:48.605Z,12.79
2022-09-11T23:46:18.891Z,12.73
2022-09-11T23:48:49.592Z,12.64
2022-09-11T23:51:21.358Z,12.61
2022-09-11T23:53:51.567Z,12.64
2022-09-11T23:56:21.039Z,12.54
2022-09-11T23:58:50.220Z,12.59
